Time;durP1;ratioP1;P1;durP2;ratioP2;P2;SDS_P1;SDS_P2;PMS_P1;PMS_P2;Temp;Humidity;BMP_temperature;BMP_pressure;BME280_temperature;BME280_humidity;BME280_pressure;Samples;Min_cycle;Max_cycle;Signal;HPM_P1;HPM_P2
2022/02/11 00:00:50;;;;;;;;;24.50;17.00;;;;;7.75;70.33;102468.06;5100300;27;45772;-76
2022/02/11 00:08:31;;;;;;;;;26.75;16.00;;;;;7.72;70.02;102481.06;5086826;27;45488;-76
2022/02/11 00:10:57;;;;;;;;;18.25;16.00;;;;;7.72;70.40;102476.69;5098965;27;45435;-76
2022/02/11 00:13:22;;;;;;;;;23.50;16.75;;;;;7.73;70.12;102477.63;5098889;27;63640;-76
2022/02/11 00:15:51;;;;;;;;;19.25;18.00;;;;;7.72;70.09;102484.59;5099083;27;45282;-77
2022/02/11 00:18:20;;;;;;;;;19.50;16.25;;;;;7.72;70.32;102481.06;5079973;27;45359;-76
2022/02/11 00:20:48;;;;;;;;;28.50;19.50;;;;;7.65;70.19;102473.72;5078964;28;45577;-77
2022/02/11 00:23:16;;;;;;;;;21.75;18.25;;;;;7.68;69.95;102476.50;5097339;27;47327;-77
2022/02/11 00:25:46;;;;;;;;;18.00;16.75;;;;;7.63;70.02;102464.84;5098949;27;45204;-76
2022/02/11 00:33:26;;;;;;;;;24.25;20.50;;;;;7.63;69.87;102483.25;5098867;27;46409;-77
2022/02/11 00:38:24;;;;;;;;;19.75;17.25;;;;;7.61;69.96;102472.66;5097448;27;45449;-76
2022/02/11 01:02:34;;;;;;;;;20.25;18.25;;;;;7.46;70.06;102501.72;4996087;28;45457;-76
2022/02/11 01:04:59;;;;;;;;;19.00;14.75;;;;;7.46;70.03;102498.19;4995634;28;46912;-77
2022/02/11 01:07:27;;;;;;;;;17.75;15.25;;;;;7.44;69.86;102502.44;5019190;28;61146;-76
2022/02/11 01:09:55;;;;;;;;;27.25;17.25;;;;;7.42;70.00;102498.84;5068093;28;45478;-76
2022/02/11 01:12:24;;;;;;;;;19.00;19.00;;;;;7.40;69.87;102503.13;5078457;28;45162;-76
2022/02/11 01:14:54;;;;;;;;;19.00;15.50;;;;;7.40;69.85;102505.75;5078180;27;47569;-76
2022/02/11 01:17:40;;;;;;;;;19.75;18.00;;;;;7.34;69.88;102507.22;5078157;27;45382;-76
2022/02/11 01:20:12;;;;;;;;;26.00;19.00;;;;;7.33;69.89;102513.31;5087306;27;45493;-76
2022/02/11 01:39:28;;;;;;;;;19.50;14.75;;;;;7.24;70.00;102520.72;5077640;28;45473;-76
2022/02/11 01:47:16;;;;;;;;;20.00;19.00;;;;;7.19;69.75;102538.00;5097809;27;45542;-76
2022/02/11 01:52:29;;;;;;;;;18.75;15.50;;;;;7.21;69.51;102528.47;5077765;28;45209;-76
2022/02/11 02:56:38;;;;;;;;;22.00;20.75;;;;;6.85;69.58;102581.66;5041812;28;45725;-76
2022/02/11 03:54:09;;;;;;;;;22.25;17.00;;;;;6.52;69.78;102653.38;5058801;28;45326;-76
2022/02/11 04:55:39;;;;;;;;;16.00;13.50;;;;;6.34;69.43;102712.69;5040881;28;45526;-76
2022/02/11 05:00:49;;;;;;;;;19.00;12.50;;;;;6.35;69.40;102743.34;5050579;28;45706;-77
2022/02/11 05:03:16;;;;;;;;;15.00;14.00;;;;;6.34;69.46;102736.28;5039673;28;45914;-76
2022/02/11 05:05:51;;;;;;;;;15.25;13.50;;;;;6.34;69.54;102743.22;5057638;28;58016;-76
2022/02/11 05:08:16;;;;;;;;;16.75;14.25;;;;;6.30;69.56;102744.78;5058192;28;45309;-76
2022/02/11 05:10:43;;;;;;;;;13.75;13.50;;;;;6.25;69.60;102741.91;5057723;28;45622;-76
2022/02/11 05:13:08;;;;;;;;;25.75;15.25;;;;;6.26;69.52;102746.31;5057869;28;45301;-76
2022/02/11 05:15:34;;;;;;;;;23.00;14.25;;;;;6.27;69.51;102749.84;5057709;28;45214;-76
2022/02/11 05:18:01;;;;;;;;;18.25;15.25;;;;;6.26;69.66;102750.66;5036418;28;45275;-76
2022/02/11 05:20:26;;;;;;;;;17.50;13.25;;;;;6.28;69.80;102760.44;5053960;28;46572;-76
2022/02/11 05:22:52;;;;;;;;;18.50;17.50;;;;;6.28;69.59;102752.59;5062745;28;54135;-76
2022/02/11 05:25:17;;;;;;;;;13.25;12.50;;;;;6.30;69.63;102765.78;5056749;28;45506;-76
2022/02/11 05:27:42;;;;;;;;;15.00;13.25;;;;;6.30;69.51;102763.16;5040415;28;45608;-75
2022/02/11 05:30:08;;;;;;;;;13.25;12.25;;;;;6.26;69.31;102755.91;5035260;28;64906;-75
2022/02/11 05:32:34;;;;;;;;;14.00;13.00;;;;;6.20;69.43;102758.19;5036172;28;45432;-75
2022/02/11 05:34:59;;;;;;;;;13.50;12.75;;;;;6.25;69.54;102775.09;5054650;28;54987;-79
2022/02/11 05:37:24;;;;;;;;;22.00;16.00;;;;;6.25;69.67;102781.25;5056059;28;45639;-79
2022/02/11 05:39:50;;;;;;;;;14.50;12.75;;;;;6.23;69.39;102780.25;5056817;28;46689;-78
2022/02/11 05:42:17;;;;;;;;;19.75;12.00;;;;;6.14;69.42;102774.44;5040539;28;45256;-81
2022/02/11 05:44:43;;;;;;;;;13.75;13.00;;;;;6.18;69.44;102776.47;5035897;28;45459;-80
2022/02/11 05:47:10;;;;;;;;;13.00;13.00;;;;;6.16;69.45;102779.78;5034732;28;54571;-80
2022/02/11 05:49:36;;;;;;;;;11.75;10.00;;;;;6.17;69.42;102787.72;5038081;28;45275;-78
2022/02/11 05:52:02;;;;;;;;;19.75;14.00;;;;;6.13;69.44;102790.09;5038429;28;58886;-78
2022/02/11 05:54:29;;;;;;;;;16.00;12.75;;;;;6.15;69.56;102804.19;5037347;28;45525;-81
2022/02/11 05:56:55;;;;;;;;;20.50;14.25;;;;;6.11;69.49;102782.13;5019287;28;45490;-76
2022/02/11 05:59:20;;;;;;;;;16.75;14.00;;;;;6.16;69.82;102808.63;5046796;28;46384;-76
2022/02/11 06:01:46;;;;;;;;;16.25;14.25;;;;;6.15;69.67;102805.09;5048269;28;54854;-77
2022/02/11 06:04:11;;;;;;;;;14.25;13.75;;;;;6.12;69.59;102802.28;5056466;28;52677;-81
2022/02/11 06:06:36;;;;;;;;;16.50;14.50;;;;;6.15;69.51;102812.97;5038772;28;55093;-82
2022/02/11 06:09:03;;;;;;;;;15.25;13.75;;;;;6.12;69.37;102807.53;5038433;28;47619;-80
2022/02/11 06:11:29;;;;;;;;;16.75;16.75;;;;;6.11;69.57;102805.72;5055632;28;46335;-75
2022/02/11 06:13:56;;;;;;;;;17.75;14.25;;;;;6.12;69.55;102815.41;5038305;28;45281;-75
2022/02/11 06:16:24;;;;;;;;;18.25;16.00;;;;;6.08;69.46;102802.03;5039002;28;45554;-75
2022/02/11 06:18:50;;;;;;;;;17.25;15.75;;;;;6.09;69.51;102801.22;5051387;28;47424;-74
2022/02/11 06:21:15;;;;;;;;;18.00;14.50;;;;;6.02;69.87;102811.34;5058416;28;45340;-79
2022/02/11 06:23:41;;;;;;;;;20.25;15.25;;;;;5.91;70.10;102817.63;5058671;28;45309;-78
2022/02/11 06:26:23;;;;;;;;;17.75;16.00;;;;;5.75;70.42;102823.63;5053558;28;45487;-76
2022/02/11 06:28:52;;;;;;;;;21.25;13.00;;;;;5.56;71.04;102836.34;5053103;28;47387;-86
2022/02/11 06:31:20;;;;;;;;;25.00;20.50;;;;;5.37;71.54;102833.34;5036355;28;45343;-80
2022/02/11 06:33:48;;;;;;;;;17.25;10.75;;;;;5.25;72.35;102833.47;5055822;28;45543;-77
2022/02/11 06:36:23;;;;;;;;;19.50;16.25;;;;;5.13;73.07;102830.97;5054652;28;50605;-77
2022/02/11 06:38:48;;;;;;;;;22.75;17.50;;;;;5.12;72.94;102833.50;5054645;28;46491;-79
2022/02/11 06:41:14;;;;;;;;;30.75;19.75;;;;;5.06;73.60;102846.16;5033865;28;58919;-77
2022/02/11 06:43:39;;;;;;;;;23.50;16.00;;;;;5.03;72.88;102856.47;5047894;28;56716;-81
2022/02/11 06:46:04;;;;;;;;;24.00;17.75;;;;;4.96;73.03;102860.41;5051083;28;45335;-79
2022/02/11 06:48:32;;;;;;;;;16.25;13.50;;;;;4.89;72.90;102863.38;5052829;28;63540;-80
2022/02/11 06:50:58;;;;;;;;;19.00;15.00;;;;;4.80;72.88;102868.94;5054016;28;45565;-78
2022/02/11 06:53:26;;;;;;;;;21.75;13.00;;;;;4.62;73.29;102849.38;5053745;28;45423;-77
2022/02/11 06:55:59;;;;;;;;;19.50;16.00;;;;;4.63;73.45;102856.41;5049660;28;55247;-76
2022/02/11 06:58:27;;;;;;;;;22.00;15.00;;;;;4.58;73.13;102869.19;5008951;22;1170784;-82
2022/02/11 07:00:53;;;;;;;;;24.75;19.75;;;;;4.55;72.90;102874.22;5019184;28;45862;-75
2022/02/11 07:03:19;;;;;;;;;20.00;14.25;;;;;4.61;72.47;102884.19;5020998;28;45615;-75
2022/02/11 07:05:45;;;;;;;;;25.00;18.50;;;;;4.65;72.66;102892.34;5038906;28;45946;-76
2022/02/11 07:08:10;;;;;;;;;24.50;18.00;;;;;4.72;72.53;102896.28;5038472;28;46636;-75
2022/02/11 07:10:35;;;;;;;;;27.50;17.75;;;;;4.81;72.14;102903.88;5038024;28;45352;-75
2022/02/11 07:13:01;;;;;;;;;20.25;12.50;;;;;4.88;72.29;102914.84;5038021;28;58933;-75
2022/02/11 07:15:26;;;;;;;;;18.25;16.00;;;;;4.96;72.20;102918.00;5038445;28;45295;-75
2022/02/11 07:17:52;;;;;;;;;19.50;17.50;;;;;5.06;71.89;102920.41;5022901;28;60920;-75
2022/02/11 07:20:17;;;;;;;;;24.00;19.50;;;;;5.13;71.89;102924.34;5028085;28;58980;-75
2022/02/11 07:22:50;;;;;;;;;24.25;20.00;;;;;5.20;72.23;102932.69;5032244;28;45471;-75
2022/02/11 07:25:15;;;;;;;;;28.00;21.75;;;;;5.29;72.09;102932.41;5036230;28;45437;-76
2022/02/11 07:27:41;;;;;;;;;26.75;21.00;;;;;5.31;72.02;102922.94;5035191;28;62719;-75
2022/02/11 07:30:07;;;;;;;;;20.25;17.75;;;;;5.38;71.66;102926.84;5035440;28;56502;-75
2022/02/11 07:32:33;;;;;;;;;28.50;24.50;;;;;5.47;71.83;102941.47;5036875;28;45435;-76
2022/02/11 07:35:00;;;;;;;;;25.50;19.75;;;;;5.46;71.76;102941.38;5034554;28;45863;-74
2022/02/11 07:37:26;;;;;;;;;26.50;23.75;;;;;5.54;71.54;102953.28;5036468;28;46330;-75
2022/02/11 07:39:59;;;;;;;;;29.00;24.25;;;;;5.58;71.62;102968.38;5035649;28;45676;-75
2022/02/11 07:42:29;;;;;;;;;36.75;21.25;;;;;5.63;71.48;102963.44;5037625;28;45441;-74
2022/02/11 07:44:57;;;;;;;;;35.50;24.25;;;;;5.65;71.33;102967.06;5037400;28;45570;-75
2022/02/11 07:47:32;;;;;;;;;30.25;22.50;;;;;5.69;71.04;102961.19;5020104;28;46602;-75
2022/02/11 07:49:59;;;;;;;;;31.00;25.00;;;;;5.75;71.31;102973.03;5034534;28;45898;-76
2022/02/11 07:52:24;;;;;;;;;24.50;20.00;;;;;5.78;71.24;102983.69;5037482;28;45323;-75
2022/02/11 07:54:52;;;;;;;;;24.50;20.50;;;;;5.81;71.30;102996.09;5037144;28;47119;-75
2022/02/11 07:57:17;;;;;;;;;20.75;20.25;;;;;5.85;70.95;102995.47;5042920;28;47999;-75
2022/02/11 07:59:44;;;;;;;;;29.25;22.25;;;;;5.89;71.24;103001.81;5037276;28;59842;-75
2022/02/11 08:02:10;;;;;;;;;30.75;22.00;;;;;5.92;70.99;103007.31;5038049;28;45363;-75
2022/02/11 08:04:36;;;;;;;;;27.75;21.00;;;;;5.82;71.13;102987.41;5037450;28;45236;-75
2022/02/11 08:07:01;;;;;;;;;28.75;25.00;;;;;5.95;70.95;103007.50;5036844;28;47382;-75
2022/02/11 08:09:32;;;;;;;;;25.50;23.50;;;;;5.98;70.72;103008.59;5035093;28;58092;-76
2022/02/11 08:12:00;;;;;;;;;37.25;21.50;;;;;5.96;70.93;102998.81;5037224;28;45321;-75
2022/02/11 08:14:25;;;;;;;;;25.75;20.50;;;;;6.03;70.93;103008.91;5035801;28;45402;-76
2022/02/11 08:16:53;;;;;;;;;40.50;29.25;;;;;6.09;70.84;103013.63;5018867;28;56879;-75
2022/02/11 08:19:19;;;;;;;;;30.00;24.50;;;;;6.05;70.69;103012.53;5033574;28;45503;-76
2022/02/11 08:21:48;;;;;;;;;30.00;21.75;;;;;6.14;70.83;103026.25;5038394;28;45415;-76
2022/02/11 08:24:14;;;;;;;;;34.75;27.50;;;;;6.18;70.75;103023.00;5037421;28;45358;-76
2022/02/11 08:26:39;;;;;;;;;29.00;21.75;;;;;6.20;70.56;103030.97;5037124;28;46769;-76
2022/02/11 08:29:08;;;;;;;;;31.75;26.25;;;;;6.17;70.59;103033.38;5035697;28;58906;-76
2022/02/11 08:31:35;;;;;;;;;29.50;25.75;;;;;6.19;70.56;103035.31;5037058;28;45208;-75
2022/02/11 08:34:01;;;;;;;;;27.00;24.50;;;;;6.21;70.63;103044.19;5036819;28;45510;-75
2022/02/11 08:36:26;;;;;;;;;23.75;21.25;;;;;6.27;70.50;103049.81;5036936;28;46467;-76
2022/02/11 08:39:02;;;;;;;;;24.75;21.75;;;;;6.32;70.68;103043.97;5035249;28;63789;-77
2022/02/11 08:41:27;;;;;;;;;25.50;23.25;;;;;6.36;70.41;103053.84;5033172;28;45491;-76
2022/02/11 08:43:54;;;;;;;;;31.75;24.50;;;;;6.34;70.12;103042.31;5037131;28;45494;-76
2022/02/11 08:46:24;;;;;;;;;28.25;20.25;;;;;6.35;69.97;103050.31;5036265;28;46721;-76
2022/02/11 08:48:49;;;;;;;;;21.25;18.00;;;;;6.36;69.82;103051.22;5037047;28;45386;-76
2022/02/11 08:51:17;;;;;;;;;15.75;13.75;;;;;6.39;70.02;103069.75;5036310;28;45538;-77
2022/02/11 08:53:43;;;;;;;;;22.50;18.00;;;;;6.44;69.95;103068.34;5037203;28;45236;-76
2022/02/11 08:56:10;;;;;;;;;23.00;18.25;;;;;6.47;70.09;103065.94;5037020;28;46540;-76
2022/02/11 08:58:36;;;;;;;;;26.00;17.25;;;;;6.45;69.85;103062.31;5041615;28;45432;-78
2022/02/11 09:01:02;;;;;;;;;21.50;18.50;;;;;6.51;70.23;103065.31;5037013;28;45709;-76
2022/02/11 09:03:27;;;;;;;;;21.75;18.00;;;;;6.54;69.79;103069.03;5037439;28;45427;-77
2022/02/11 09:05:53;;;;;;;;;31.50;24.75;;;;;6.57;69.64;103079.72;5036667;28;46516;-77
2022/02/11 09:08:18;;;;;;;;;31.75;26.50;;;;;6.60;69.99;103071.13;5036469;28;61544;-76
2022/02/11 09:10:47;;;;;;;;;23.00;19.25;;;;;6.61;69.73;103079.94;5036956;28;45419;-77
2022/02/11 09:13:12;;;;;;;;;26.00;18.00;;;;;6.67;69.99;103094.34;5036768;28;45479;-76
2022/02/11 09:15:38;;;;;;;;;25.75;22.25;;;;;6.72;69.94;103092.03;5035208;28;47551;-76
2022/02/11 09:18:03;;;;;;;;;29.25;17.00;;;;;6.72;69.85;103098.16;5035886;28;61107;-76
2022/02/11 09:20:28;;;;;;;;;19.00;18.00;;;;;6.74;69.48;103101.78;5038123;28;53744;-77
2022/02/11 09:22:54;;;;;;;;;22.50;18.25;;;;;6.75;69.41;103113.19;5041136;28;51978;-77
2022/02/11 09:25:20;;;;;;;;;20.00;17.25;;;;;6.73;69.38;103112.19;5036245;28;50197;-76
2022/02/11 09:27:46;;;;;;;;;25.25;21.75;;;;;6.74;69.24;103117.53;5035788;28;45416;-77
2022/02/11 09:30:16;;;;;;;;;31.25;24.25;;;;;6.75;69.52;103119.34;5036233;28;45324;-76
2022/02/11 09:32:42;;;;;;;;;22.50;21.50;;;;;6.79;69.54;103121.38;5036485;28;45349;-77
2022/02/11 09:35:09;;;;;;;;;18.50;15.25;;;;;6.81;69.45;103124.97;5036527;28;47587;-77
2022/02/11 09:37:35;;;;;;;;;21.75;20.75;;;;;6.83;69.44;103120.75;5035638;28;45363;-77
2022/02/11 09:40:01;;;;;;;;;24.00;17.50;;;;;6.87;69.37;103120.94;5036395;28;45342;-76
2022/02/11 09:42:27;;;;;;;;;20.75;18.75;;;;;6.83;69.41;103114.59;5036619;28;45678;-77
2022/02/11 09:44:53;;;;;;;;;25.50;19.00;;;;;6.87;69.15;103114.00;4998860;28;46380;-77
2022/02/11 09:47:28;;;;;;;;;27.00;23.50;;;;;6.92;69.29;103130.00;5033872;28;45541;-74
2022/02/11 09:49:53;;;;;;;;;25.25;19.00;;;;;6.96;69.35;103127.66;5020147;28;45174;-77
2022/02/11 09:52:19;;;;;;;;;23.00;17.75;;;;;6.96;69.39;103122.41;5035760;28;50130;-77
2022/02/11 09:54:44;;;;;;;;;24.50;18.25;;;;;7.00;69.31;103121.81;5035061;28;46389;-76
2022/02/11 09:57:10;;;;;;;;;28.25;20.00;;;;;7.12;69.38;103131.25;5035418;28;45483;-78
2022/02/11 09:59:37;;;;;;;;;28.75;19.00;;;;;7.16;69.21;103133.25;5018328;28;45484;-78
2022/02/11 10:02:02;;;;;;;;;22.50;19.00;;;;;7.22;69.15;103129.28;5035501;28;45441;-78
2022/02/11 10:04:33;;;;;;;;;31.50;22.75;;;;;7.27;69.22;103130.47;5017460;28;46700;-78
2022/02/11 10:06:58;;;;;;;;;23.75;18.25;;;;;7.35;69.11;103144.09;5034730;28;45489;-77
2022/02/11 10:09:24;;;;;;;;;23.50;18.75;;;;;7.35;69.32;103133.59;5018353;28;45392;-77
2022/02/11 10:11:50;;;;;;;;;29.25;20.00;;;;;7.46;69.07;103142.13;5035088;28;45535;-78
2022/02/11 10:14:26;;;;;;;;;24.50;18.75;;;;;7.49;68.99;103137.94;5035553;28;46254;-77
2022/02/11 10:16:54;;;;;;;;;23.50;20.00;;;;;7.60;68.68;103149.09;5035900;28;45292;-77
2022/02/11 10:19:56;;;;;;;;;32.75;22.50;;;;;7.67;68.67;103156.56;5035036;28;45554;-78
2022/02/11 10:22:25;;;;;;;;;19.00;18.75;;;;;7.71;68.60;103152.38;4992971;28;45508;-79
2022/02/11 10:24:51;;;;;;;;;29.75;22.00;;;;;7.71;68.83;103152.38;4992477;28;47488;-78
2022/02/11 10:27:37;;;;;;;;;23.25;20.00;;;;;7.80;68.49;103153.84;4993812;28;45463;-78
2022/02/11 10:30:07;;;;;;;;;24.25;19.25;;;;;7.81;68.32;103150.38;5005354;28;45535;-78
2022/02/11 10:32:43;;;;;;;;;24.50;19.75;;;;;7.88;68.38;103159.53;5015828;28;45644;-77
2022/02/11 10:35:11;;;;;;;;;22.00;17.75;;;;;7.92;68.33;103158.00;5043385;28;47352;-78
2022/02/11 10:37:41;;;;;;;;;17.50;16.00;;;;;7.97;68.28;103157.47;5039284;28;45427;-79
2022/02/11 10:40:09;;;;;;;;;16.25;14.25;;;;;8.05;68.19;103169.34;5007832;28;45400;-78
2022/02/11 10:42:45;;;;;;;;;17.25;15.25;;;;;8.14;68.26;103174.22;5020986;28;45388;-78
2022/02/11 10:45:31;;;;;;;;;20.50;15.50;;;;;8.19;68.04;103163.97;5041230;28;45620;-78
2022/02/11 10:48:13;;;;;;;;;19.25;16.00;;;;;8.26;68.21;103174.06;5046547;28;46049;-78
2022/02/11 10:50:57;;;;;;;;;22.25;15.00;;;;;8.30;67.49;103169.03;5041023;28;45514;-78
2022/02/11 10:53:23;;;;;;;;;21.50;19.50;;;;;8.35;67.61;103172.84;5041472;28;45442;-78
2022/02/11 10:55:49;;;;;;;;;22.25;15.00;;;;;8.38;67.74;103170.44;5047974;28;47551;-79
2022/02/11 10:58:16;;;;;;;;;18.75;15.75;;;;;8.38;67.18;103161.63;5043608;28;45391;-78
2022/02/11 11:00:41;;;;;;;;;21.50;15.25;;;;;8.45;67.09;103163.78;5043808;28;45494;-79
2022/02/11 11:03:10;;;;;;;;;11.25;11.25;;;;;8.53;67.31;103173.03;5003901;28;48208;-80
2022/02/11 11:05:36;;;;;;;;;20.00;13.25;;;;;8.58;67.41;103166.31;5038469;28;46585;-79
2022/02/11 11:08:04;;;;;;;;;15.75;14.25;;;;;8.65;67.34;103172.81;5038478;28;45456;-79
2022/02/11 11:10:30;;;;;;;;;14.25;14.25;;;;;8.72;67.54;103163.53;5002494;28;46414;-78
2022/02/11 11:13:01;;;;;;;;;13.00;11.00;;;;;8.79;66.88;103171.88;5019895;28;45345;-78
2022/02/11 11:15:26;;;;;;;;;18.75;14.00;;;;;8.85;66.74;103168.69;5035056;28;45640;-79
2022/02/11 11:17:54;;;;;;;;;18.50;16.00;;;;;8.87;66.62;103160.03;5021904;28;45340;-77
2022/02/11 11:20:21;;;;;;;;;16.75;15.50;;;;;8.89;66.59;103162.72;5118302;22;45331;-77
2022/02/11 11:22:48;;;;;;;;;13.75;12.00;;;;;8.94;66.68;103150.72;5096781;22;45535;-77
2022/02/11 11:25:14;;;;;;;;;16.25;13.50;;;;;9.04;66.36;103168.84;5104345;22;47378;-79
2022/02/11 11:27:40;;;;;;;;;14.50;12.25;;;;;9.17;66.68;103170.44;5101811;27;45448;-79
2022/02/11 11:30:29;;;;;;;;;19.25;14.50;;;;;9.38;66.42;103165.41;5120722;27;45482;-77
2022/02/11 11:33:06;;;;;;;;;15.00;12.25;;;;;9.58;65.91;103166.44;5087319;27;45515;-77
2022/02/11 11:35:38;;;;;;;;;15.75;12.00;;;;;9.73;65.42;103164.63;5111786;22;46822;-77
2022/02/11 11:38:16;;;;;;;;;15.25;12.00;;;;;9.85;65.06;103161.69;5119017;27;45538;-77
2022/02/11 11:41:15;;;;;;;;;7.00;5.75;;;;;9.87;63.56;103160.06;5121333;27;45275;-77
2022/02/11 11:43:44;;;;;;;;;5.00;5.00;;;;;9.78;64.01;103162.22;5070863;22;45446;-77
2022/02/11 11:46:19;;;;;;;;;6.00;6.00;;;;;9.80;64.23;103169.41;5077559;28;47533;-77
2022/02/11 11:49:14;;;;;;;;;10.33;3.33;;;;;9.83;64.28;103161.63;5079663;28;45561;-77
2022/02/11 11:51:40;;;;;;;;;4.00;2.33;;;;;9.85;63.30;103157.31;5108806;22;45627;-77
2022/02/11 11:56:43;;;;;;;;;10.00;4.67;;;;;9.90;63.17;103152.28;5060416;28;45680;-77
2022/02/11 11:59:15;;;;;;;;;9.00;4.00;;;;;9.92;63.02;103155.94;5059193;28;45471;-77
2022/02/11 12:02:20;;;;;;;;;5.50;4.00;;;;;9.93;62.31;103153.34;5059437;28;45290;-77
2022/02/11 12:04:45;;;;;;;;;7.00;3.00;;;;;9.96;62.29;103155.25;5071086;28;45440;-74
2022/02/11 12:07:18;;;;;;;;;4.33;4.00;;;;;9.94;60.41;103139.31;5085742;22;45588;-77
2022/02/11 12:09:53;;;;;;;;;8.00;5.33;;;;;10.07;62.38;103146.16;5079322;27;45963;-77
2022/02/11 12:15:03;;;;;;;;;6.67;6.00;;;;;10.29;61.28;103142.88;5125087;27;46720;-77
2022/02/11 12:17:31;;;;;;;;;8.33;6.00;;;;;10.42;61.64;103139.97;5127212;27;46419;-77
2022/02/11 12:19:57;;;;;;;;;7.00;3.00;;;;;10.59;61.43;103135.50;5124725;27;45171;-76
2022/02/11 12:22:27;;;;;;;;;3.33;2.00;;;;;10.76;61.13;103141.63;5122834;27;45342;-74
2022/02/11 12:27:40;;;;;;;;;7.00;3.33;;;;;10.80;60.12;103142.66;5120269;27;45793;-74
2022/02/11 12:30:10;;;;;;;;;5.00;5.00;;;;;10.79;60.03;103138.19;5122798;27;45230;-75
2022/02/11 12:32:39;;;;;;;;;5.67;4.00;;;;;10.77;59.94;103135.50;5110961;22;45141;-75
2022/02/11 12:37:42;;;;;;;;;5.33;3.00;;;;;10.73;59.97;103129.16;2810176;22;45859;-75
2022/02/11 12:42:46;;;;;;;;;4.00;4.00;;;;;10.76;59.13;103120.47;3983788;25;45427;-74
2022/02/11 12:45:21;;;;;;;;;8.00;5.00;;;;;10.83;58.52;103114.63;5096286;22;45679;-75
2022/02/11 12:47:46;;;;;;;;;9.00;5.00;;;;;10.90;58.43;103106.13;5078393;27;46744;-75
2022/02/11 12:50:14;;;;;;;;;4.00;3.00;;;;;10.98;59.22;103120.63;5080004;27;45529;-75
2022/02/11 12:52:39;;;;;;;;;9.33;4.00;;;;;11.02;59.03;103116.38;5097801;27;45516;-75
2022/02/11 12:55:06;;;;;;;;;4.00;4.00;;;;;11.07;58.70;103119.22;5103980;27;45420;-75
2022/02/11 12:57:32;;;;;;;;;8.67;3.00;;;;;11.17;58.71;103113.53;5083949;27;45969;-75
2022/02/11 12:59:57;;;;;;;;;11.67;4.67;;;;;11.28;58.80;103110.50;5086723;27;45386;-75
2022/02/11 13:02:33;;;;;;;;;3.33;3.00;;;;;11.39;58.56;103115.38;5099004;22;45500;-77
2022/02/11 13:05:08;;;;;;;;;9.67;4.00;;;;;11.44;58.76;103112.09;5079302;27;45468;-77
2022/02/11 13:07:37;;;;;;;;;4.33;3.33;;;;;11.50;58.24;103109.75;5089095;27;47570;-77
2022/02/11 13:10:05;;;;;;;;;5.67;3.00;;;;;11.55;58.61;103108.19;5077196;27;45630;-77
2022/02/11 13:12:41;;;;;;;;;6.67;3.00;;;;;11.62;57.48;103113.75;5086756;27;45377;-77
2022/02/11 13:15:08;;;;;;;;;5.00;4.00;;;;;11.62;57.40;103109.38;5094719;27;45319;-77
2022/02/11 13:17:33;;;;;;;;;8.33;4.33;;;;;11.65;57.43;103113.88;5111754;22;46334;-77
2022/02/11 13:20:11;;;;;;;;;10.00;4.67;;;;;11.65;57.74;103120.06;5106526;22;51466;-77
2022/02/11 13:22:38;;;;;;;;;2.00;2.00;;;;;11.69;56.99;103119.38;5097092;27;45578;-77
2022/02/11 13:25:04;;;;;;;;;8.00;4.00;;;;;11.76;57.34;103113.50;5086949;27;45516;-77
2022/02/11 13:27:52;;;;;;;;;9.33;4.67;;;;;11.79;57.27;103103.03;5095722;27;47475;-77
2022/02/11 13:30:28;;;;;;;;;7.00;4.67;;;;;11.93;57.10;103111.63;5092784;22;46148;-77
2022/02/11 13:32:55;;;;;;;;;9.00;4.00;;;;;12.00;56.58;103107.47;5084229;27;45572;-76
2022/02/11 13:35:28;;;;;;;;;7.33;5.00;;;;;12.12;56.79;103115.00;5093788;27;45430;-77
2022/02/11 13:37:56;;;;;;;;;5.67;4.33;;;;;12.22;56.54;103106.63;5092559;27;46585;-77
2022/02/11 13:40:23;;;;;;;;;4.67;3.67;;;;;12.24;55.73;103095.22;5070627;27;45532;-77
2022/02/11 13:43:12;;;;;;;;;5.33;5.00;;;;;12.29;55.94;103106.00;5088866;27;45418;-77
2022/02/11 13:46:05;;;;;;;;;7.67;4.00;;;;;12.27;56.36;103102.41;5095164;22;52622;-78
2022/02/11 13:48:31;;;;;;;;;5.00;4.00;;;;;12.23;55.49;103097.81;5112154;22;46585;-77
2022/02/11 13:51:06;;;;;;;;;3.00;3.00;;;;;12.18;55.24;103102.91;5110558;22;46579;-77
2022/02/11 13:53:37;;;;;;;;;5.00;4.00;;;;;12.12;55.66;103104.41;5097097;27;45457;-77
2022/02/11 13:56:03;;;;;;;;;4.67;4.67;;;;;12.06;55.63;103098.03;5109885;22;45590;-77
2022/02/11 13:58:29;;;;;;;;;5.00;3.00;;;;;11.98;55.56;103094.16;5106327;27;46316;-78
2022/02/11 14:06:01;;;;;;;;;7.67;5.33;;;;;11.69;55.53;103092.91;5097579;22;47702;-77
2022/02/11 14:08:43;;;;;;;;;5.00;3.67;;;;;11.52;55.28;103084.25;5130720;22;46484;-77
2022/02/11 14:11:15;;;;;;;;;10.33;4.67;;;;;11.47;55.85;103087.53;5098946;22;45340;-77
2022/02/11 14:13:42;;;;;;;;;5.67;4.00;;;;;11.39;55.51;103089.81;5052700;28;45324;-78
2022/02/11 14:16:07;;;;;;;;;9.00;5.00;;;;;11.27;55.69;103079.63;5085082;22;45256;-77
2022/02/11 14:18:33;;;;;;;;;5.00;3.67;;;;;11.20;55.33;103082.84;5110910;22;46747;-77
2022/02/11 14:21:01;;;;;;;;;8.00;4.67;;;;;11.18;55.38;103079.22;5099848;27;45215;-77
2022/02/11 14:23:26;;;;;;;;;5.00;5.00;;;;;11.21;55.98;103084.66;5107575;22;47071;-77
2022/02/11 14:25:51;;;;;;;;;7.67;4.67;;;;;11.31;55.88;103087.72;5107357;22;45414;-77
2022/02/11 14:28:17;;;;;;;;;3.00;3.00;;;;;11.44;56.28;103083.00;5112732;27;47209;-77
2022/02/11 14:30:48;;;;;;;;;5.67;5.00;;;;;11.59;55.40;103080.13;5102025;27;45222;-77
2022/02/11 14:33:13;;;;;;;;;8.00;4.00;;;;;11.79;54.94;103092.47;5105523;27;45298;-75
2022/02/11 14:35:41;;;;;;;;;9.33;5.00;;;;;11.90;55.25;103089.41;5091869;27;56834;-77
2022/02/11 14:38:07;;;;;;;;;8.67;4.67;;;;;12.04;54.67;103085.59;5104025;27;46819;-77
2022/02/11 14:40:32;;;;;;;;;11.00;4.00;;;;;12.18;54.58;103086.13;5027753;22;46451;-77
2022/02/11 14:43:01;;;;;;;;;4.00;4.00;;;;;12.22;54.36;103075.72;5075015;27;45326;-77
2022/02/11 14:45:26;;;;;;;;;9.00;4.00;;;;;12.31;54.20;103086.69;5065375;28;45377;-77
2022/02/11 14:47:51;;;;;;;;;8.33;4.00;;;;;12.34;54.06;103077.97;5070924;28;58557;-77
2022/02/11 14:50:17;;;;;;;;;11.00;6.33;;;;;12.33;54.02;103084.09;5075506;27;45425;-77
2022/02/11 14:52:42;;;;;;;;;9.00;4.00;;;;;12.30;54.32;103079.59;5062831;27;45401;-77
2022/02/11 14:55:10;;;;;;;;;9.00;5.00;;;;;12.28;53.98;103085.66;5071327;28;45477;-77
2022/02/11 14:57:42;;;;;;;;;11.67;8.67;;;;;12.24;53.34;103086.38;5071230;27;47065;-77
2022/02/11 15:00:08;;;;;;;;;9.67;6.00;;;;;12.20;54.22;103079.16;5073263;28;45327;-77
2022/02/11 15:02:34;;;;;;;;;5.67;5.67;;;;;12.20;54.30;103081.81;5075377;27;45796;-77
2022/02/11 15:05:04;;;;;;;;;6.67;3.33;;;;;12.15;54.28;103084.28;5073929;28;45360;-76
2022/02/11 15:07:29;;;;;;;;;8.00;6.33;;;;;12.12;53.91;103093.84;5073575;27;46604;-77
2022/02/11 15:09:57;;;;;;;;;6.33;4.00;;;;;12.07;54.31;103091.00;5072789;27;45500;-77
2022/02/11 15:12:22;;;;;;;;;3.00;3.00;;;;;12.01;54.39;103083.69;5074959;27;45432;-77
2022/02/11 15:14:48;;;;;;;;;5.33;3.33;;;;;11.97;53.93;103083.50;5074910;28;53580;-77
2022/02/11 15:17:16;;;;;;;;;8.00;5.00;;;;;11.93;54.33;103089.50;5066411;28;46725;-77
2022/02/11 15:19:42;;;;;;;;;4.00;4.00;;;;;11.88;54.39;103084.06;5075050;28;45249;-76
2022/02/11 15:22:08;;;;;;;;;6.00;4.00;;;;;11.86;54.22;103077.75;5073399;27;45163;-77
2022/02/11 15:24:37;;;;;;;;;6.67;5.00;;;;;11.83;54.09;103075.00;5076782;28;45478;-76
2022/02/11 15:27:05;;;;;;;;;3.33;3.33;;;;;11.82;54.50;103075.81;5076824;27;46536;-76
2022/02/11 15:29:33;;;;;;;;;3.33;3.33;;;;;11.80;54.08;103072.19;5078333;28;45503;-76
2022/02/11 15:31:58;;;;;;;;;2.33;2.00;;;;;11.76;54.57;103067.59;5078497;27;45330;-76
2022/02/11 15:34:26;;;;;;;;;5.33;4.00;;;;;11.69;54.61;103069.09;5089121;27;56662;-76
2022/02/11 15:36:51;;;;;;;;;3.00;3.00;;;;;11.60;54.60;103062.50;5078865;27;46311;-77
2022/02/11 15:39:26;;;;;;;;;11.33;6.00;;;;;11.48;54.45;103053.19;5077286;27;60608;-76
2022/02/11 15:41:52;;;;;;;;;4.33;4.33;;;;;11.40;54.46;103057.28;5076041;28;45531;-76